Time;durP1;ratioP1;P1;durP2;ratioP2;P2;SDS_P1;SDS_P2;PMS_P1;PMS_P2;Temp;Humidity;BMP_temperature;BMP_pressure;BME280_temperature;BME280_humidity;BME280_pressure;Samples;Min_cycle;Max_cycle;Signal;HPM_P1;HPM_P2
2024/01/04 00:01:17;;;;;;;3.50;2.17;;;17.80;68.20;;;;;;5008947;28;20443;-78
2024/01/04 00:03:44;;;;;;;2.57;1.57;;;17.80;68.60;;;;;;5012202;28;20467;-78
2024/01/04 00:06:12;;;;;;;2.30;2.10;;;17.80;68.30;;;;;;5011651;28;20488;-78
2024/01/04 00:08:40;;;;;;;4.03;2.27;;;17.70;68.30;;;;;;5013917;28;20445;-78
2024/01/04 00:11:10;;;;;;;2.57;2.20;;;17.70;68.40;;;;;;5013903;28;20475;-79
2024/01/04 00:13:37;;;;;;;3.27;2.00;;;17.70;68.10;;;;;;5010258;28;20491;-78
2024/01/04 00:16:09;;;;;;;3.20;1.90;;;17.70;68.20;;;;;;5012425;28;20407;-78
2024/01/04 00:18:37;;;;;;;6.33;2.10;;;17.70;68.20;;;;;;5015497;28;20986;-79
2024/01/04 00:21:06;;;;;;;2.30;2.10;;;17.70;67.90;;;;;;5014942;28;20463;-79
2024/01/04 00:23:34;;;;;;;2.20;2.00;;;17.70;68.60;;;;;;5011335;28;20460;-80
2024/01/04 00:26:03;;;;;;;3.87;2.27;;;17.70;68.30;;;;;;5015860;28;20436;-79
2024/01/04 00:28:32;;;;;;;2.00;1.80;;;17.70;68.50;;;;;;5015494;28;20463;-79
2024/01/04 00:31:00;;;;;;;2.30;1.93;;;17.70;68.40;;;;;;5014271;28;20487;-79
2024/01/04 00:33:28;;;;;;;3.43;2.10;;;17.70;68.10;;;;;;5014174;28;20452;-78
2024/01/04 00:35:56;;;;;;;3.33;2.23;;;17.70;68.30;;;;;;5001123;28;20453;-78
2024/01/04 00:38:24;;;;;;;3.03;1.50;;;17.70;68.50;;;;;;5007287;28;20464;-78
2024/01/04 00:40:52;;;;;;;1.90;1.80;;;17.70;68.30;;;;;;5004002;28;20492;-79
2024/01/04 00:43:20;;;;;;;3.07;2.40;;;17.70;68.00;;;;;;5003694;28;20467;-79
2024/01/04 00:45:49;;;;;;;4.30;1.80;;;17.60;68.20;;;;;;5000673;28;20472;-79
2024/01/04 00:48:17;;;;;;;3.47;2.03;;;17.60;68.20;;;;;;5004160;28;20470;-78
2024/01/04 00:50:46;;;;;;;4.40;2.00;;;17.60;68.30;;;;;;5001825;28;20465;-79
2024/01/04 00:53:14;;;;;;;4.57;2.20;;;17.60;68.90;;;;;;5004040;28;20450;-79
2024/01/04 00:55:42;;;;;;;2.30;2.10;;;17.60;68.30;;;;;;5002846;28;20472;-78
2024/01/04 00:58:10;;;;;;;2.00;1.90;;;17.60;68.40;;;;;;5001306;28;20504;-78
2024/01/04 01:00:38;;;;;;;2.10;1.70;;;17.60;67.90;;;;;;5002159;28;20460;-78
2024/01/04 01:03:07;;;;;;;2.07;1.87;;;17.60;68.30;;;;;;5004368;28;20436;-78
2024/01/04 01:05:35;;;;;;;2.47;2.10;;;17.60;68.30;;;;;;5005008;28;20430;-78
2024/01/04 01:08:03;;;;;;;2.10;2.00;;;17.60;68.20;;;;;;5002965;28;20434;-78
2024/01/04 01:10:32;;;;;;;2.40;2.03;;;17.50;67.80;;;;;;5002856;28;20529;-78
2024/01/04 01:13:00;;;;;;;2.70;1.70;;;17.50;68.10;;;;;;5037379;23;20495;-78
2024/01/04 01:15:28;;;;;;;2.33;2.07;;;17.50;67.90;;;;;;5016654;28;20439;-78
2024/01/04 01:17:56;;;;;;;2.10;1.90;;;17.50;68.30;;;;;;5014817;28;20478;-77
2024/01/04 01:20:26;;;;;;;2.60;2.00;;;17.50;68.20;;;;;;5012818;28;20437;-79
2024/01/04 01:22:53;;;;;;;2.57;2.37;;;17.50;67.80;;;;;;5006522;28;20458;-78
2024/01/04 01:25:21;;;;;;;4.20;2.20;;;17.50;68.00;;;;;;5003697;28;20433;-77
2024/01/04 01:27:49;;;;;;;1.70;1.60;;;17.40;68.00;;;;;;4998371;28;20444;-78
2024/01/04 01:30:17;;;;;;;5.37;2.30;;;17.40;67.80;;;;;;4996369;28;20580;-80
2024/01/04 01:32:45;;;;;;;2.13;2.00;;;17.40;67.80;;;;;;4987055;28;20464;-79
2024/01/04 01:35:14;;;;;;;1.80;1.70;;;17.40;67.60;;;;;;4997236;28;20434;-78
2024/01/04 01:37:44;;;;;;;2.20;2.00;;;17.40;67.70;;;;;;4986655;28;20504;-79
2024/01/04 01:40:12;;;;;;;2.27;2.07;;;17.40;67.90;;;;;;4988929;28;20964;-79
2024/01/04 01:42:40;;;;;;;2.20;2.00;;;17.40;67.80;;;;;;4987915;28;20524;-79
2024/01/04 01:45:10;;;;;;;1.90;1.80;;;17.40;67.90;;;;;;4990142;28;20438;-79
2024/01/04 01:47:38;;;;;;;1.77;1.67;;;17.40;67.70;;;;;;4994211;28;20436;-79
2024/01/04 01:50:07;;;;;;;2.07;1.87;;;17.40;67.70;;;;;;4994969;28;20425;-79
2024/01/04 01:52:35;;;;;;;1.90;1.80;;;17.40;67.60;;;;;;4996717;28;20453;-80
2024/01/04 01:55:05;;;;;;;2.10;2.00;;;17.30;67.40;;;;;;4997935;28;20465;-79
2024/01/04 01:57:33;;;;;;;2.77;1.87;;;17.30;67.80;;;;;;4997170;28;20461;-79
2024/01/04 02:00:02;;;;;;;2.40;2.20;;;17.30;67.40;;;;;;4998401;28;20473;-79
2024/01/04 02:02:29;;;;;;;1.87;1.77;;;17.30;67.60;;;;;;4997682;28;20454;-79
2024/01/04 02:04:58;;;;;;;5.10;2.30;;;17.30;67.70;;;;;;4997807;28;20429;-79
2024/01/04 02:07:26;;;;;;;3.10;1.73;;;17.30;67.90;;;;;;4992344;28;20479;-79
2024/01/04 02:09:54;;;;;;;4.60;1.90;;;17.30;67.60;;;;;;4996276;28;20445;-79
2024/01/04 02:12:23;;;;;;;1.80;1.70;;;17.30;67.50;;;;;;4996583;28;20552;-78
2024/01/04 02:14:54;;;;;;;1.97;1.60;;;17.20;67.50;;;;;;4997990;28;20495;-79
2024/01/04 02:17:23;;;;;;;2.37;1.87;;;17.30;67.60;;;;;;4996092;28;20456;-79
2024/01/04 02:19:51;;;;;;;2.87;1.73;;;17.30;67.70;;;;;;4995656;28;20476;-79
2024/01/04 02:22:19;;;;;;;2.33;2.13;;;17.30;67.60;;;;;;4995895;28;20465;-79
2024/01/04 02:24:49;;;;;;;2.10;2.00;;;17.30;67.30;;;;;;4987869;28;20496;-80
2024/01/04 02:27:17;;;;;;;3.23;2.17;;;17.20;67.50;;;;;;4984572;28;20533;-80
2024/01/04 02:29:45;;;;;;;2.00;1.80;;;17.30;67.50;;;;;;4982630;28;20533;-79
2024/01/04 02:32:13;;;;;;;1.70;1.60;;;17.20;67.30;;;;;;4985897;28;20471;-79
2024/01/04 02:34:41;;;;;;;2.90;1.97;;;17.20;67.40;;;;;;4987922;28;20496;-81
2024/01/04 02:37:09;;;;;;;3.30;2.03;;;17.20;67.50;;;;;;4985595;28;20536;-80
2024/01/04 02:39:38;;;;;;;2.17;1.73;;;17.10;67.20;;;;;;4986500;28;20564;-81
2024/01/04 02:42:07;;;;;;;2.23;2.03;;;17.10;67.10;;;;;;4985427;28;20466;-79
2024/01/04 02:44:43;;;;;;;2.40;2.17;;;17.10;67.50;;;;;;4985319;28;21043;-79
2024/01/04 02:47:11;;;;;;;3.83;1.60;;;17.10;67.20;;;;;;4983726;28;20528;-79
2024/01/04 02:49:39;;;;;;;3.60;2.03;;;17.10;67.20;;;;;;4979619;28;20437;-79
2024/01/04 02:52:07;;;;;;;2.70;2.30;;;17.10;66.90;;;;;;4997557;28;20465;-82
2024/01/04 02:54:35;;;;;;;2.53;2.33;;;17.10;67.50;;;;;;4998014;28;20444;-80
2024/01/04 02:57:04;;;;;;;3.20;2.13;;;17.10;66.90;;;;;;4998042;28;20468;-81
2024/01/04 02:59:33;;;;;;;2.60;2.10;;;17.10;67.00;;;;;;4997173;28;20473;-80
2024/01/04 03:02:02;;;;;;;2.53;1.77;;;17.00;66.70;;;;;;4998137;28;20465;-82
2024/01/04 03:04:29;;;;;;;2.30;1.90;;;17.00;67.10;;;;;;4998736;28;20437;-80
2024/01/04 03:06:57;;;;;;;2.10;1.70;;;17.00;66.70;;;;;;4998618;28;20448;-82
2024/01/04 03:09:25;;;;;;;2.40;2.00;;;17.00;67.20;;;;;;4997503;28;20484;-81
2024/01/04 03:11:54;;;;;;;2.83;1.90;;;17.00;67.00;;;;;;4998330;28;20465;-82
2024/01/04 03:14:22;;;;;;;1.60;1.50;;;17.00;67.10;;;;;;5001094;28;20443;-81
2024/01/04 03:16:51;;;;;;;2.17;1.97;;;17.00;67.00;;;;;;5009592;28;20437;-81
2024/01/04 03:19:19;;;;;;;2.90;2.40;;;17.00;66.50;;;;;;5009525;28;20473;-81
2024/01/04 03:21:47;;;;;;;4.67;3.73;;;16.90;66.50;;;;;;5004693;28;20564;-81
2024/01/04 03:24:16;;;;;;;6.03;2.70;;;16.90;66.50;;;;;;4996914;28;20445;-81
2024/01/04 03:26:44;;;;;;;2.83;2.57;;;16.90;67.00;;;;;;4995689;28;20460;-80
2024/01/04 03:29:12;;;;;;;3.60;2.60;;;16.90;66.70;;;;;;4995723;28;20448;-78
2024/01/04 03:31:41;;;;;;;4.57;3.30;;;16.90;66.60;;;;;;4998676;28;20457;-80
2024/01/04 03:34:10;;;;;;;4.27;3.63;;;16.90;66.70;;;;;;4996714;28;20446;-81
2024/01/04 03:36:39;;;;;;;5.20;3.00;;;16.90;66.50;;;;;;4995981;28;20434;-81
2024/01/04 03:39:07;;;;;;;4.73;3.73;;;16.90;66.50;;;;;;4995690;28;20560;-80
2024/01/04 03:41:35;;;;;;;4.40;3.40;;;16.90;66.50;;;;;;4995972;28;20504;-81
2024/01/04 03:44:04;;;;;;;4.70;3.27;;;16.90;66.40;;;;;;4996538;28;20452;-80
2024/01/04 03:46:32;;;;;;;5.23;4.10;;;16.90;66.50;;;;;;4996267;28;20449;-80
2024/01/04 03:49:01;;;;;;;4.10;3.70;;;16.90;66.50;;;;;;4996724;28;20512;-81
2024/01/04 03:51:30;;;;;;;4.67;3.67;;;16.90;66.70;;;;;;4995887;28;20581;-81
2024/01/04 03:53:58;;;;;;;4.87;3.07;;;16.90;66.50;;;;;;4996536;28;20445;-81
2024/01/04 03:56:26;;;;;;;3.90;3.20;;;16.90;66.50;;;;;;4996878;28;20514;-80
2024/01/04 03:58:55;;;;;;;5.77;3.70;;;16.80;66.30;;;;;;4996010;28;20488;-80
2024/01/04 04:01:23;;;;;;;4.90;3.90;;;16.80;66.60;;;;;;4995984;28;20449;-81
2024/01/04 04:03:51;;;;;;;4.70;3.37;;;16.80;66.60;;;;;;4996177;28;20540;-81
2024/01/04 04:06:20;;;;;;;4.03;3.53;;;16.80;66.60;;;;;;4996506;28;20461;-81
2024/01/04 04:08:49;;;;;;;3.90;3.50;;;16.80;66.70;;;;;;4997113;28;20453;-81
2024/01/04 04:11:17;;;;;;;4.13;3.37;;;16.80;66.60;;;;;;4996343;28;20448;-80
2024/01/04 04:13:46;;;;;;;4.10;3.70;;;16.80;66.30;;;;;;4997702;28;20439;-80
2024/01/04 04:16:14;;;;;;;3.57;3.20;;;16.80;66.60;;;;;;4995675;28;20509;-81
2024/01/04 04:18:42;;;;;;;3.27;2.97;;;16.80;66.70;;;;;;4993637;28;20483;-81
2024/01/04 04:21:19;;;;;;;3.33;3.03;;;16.80;66.30;;;;;;4992458;28;20477;-81
2024/01/04 04:23:49;;;;;;;3.80;2.93;;;16.80;66.70;;;;;;4995767;28;20449;-81
2024/01/04 04:26:18;;;;;;;4.60;3.60;;;16.70;66.40;;;;;;4993786;28;20468;-81
2024/01/04 04:28:47;;;;;;;4.00;3.40;;;16.70;66.50;;;;;;4992805;28;20453;-80
2024/01/04 04:31:15;;;;;;;3.17;2.87;;;16.70;66.40;;;;;;4991593;28;20445;-81
2024/01/04 04:33:44;;;;;;;3.50;3.07;;;16.70;66.50;;;;;;4992090;28;20455;-80
2024/01/04 04:36:13;;;;;;;4.13;3.40;;;16.70;66.40;;;;;;4994798;28;20445;-81
2024/01/04 04:38:42;;;;;;;3.17;2.80;;;16.70;66.40;;;;;;4990282;28;20496;-81
2024/01/04 04:41:12;;;;;;;3.90;2.87;;;16.70;66.60;;;;;;4993859;28;20483;-81
2024/01/04 04:43:40;;;;;;;3.10;2.80;;;16.70;66.50;;;;;;4994067;28;20468;-81
2024/01/04 04:46:09;;;;;;;4.90;2.90;;;16.70;66.20;;;;;;4994558;28;20437;-81
2024/01/04 04:48:38;;;;;;;3.33;2.70;;;16.70;66.50;;;;;;4994306;28;20456;-81
2024/01/04 04:51:10;;;;;;;3.47;3.17;;;16.70;66.60;;;;;;4991947;28;20449;-82
2024/01/04 04:53:46;;;;;;;3.03;2.77;;;16.70;66.50;;;;;;4990084;28;20449;-82
2024/01/04 04:56:16;;;;;;;3.10;2.80;;;16.70;66.30;;;;;;4995066;28;20445;-81
2024/01/04 04:58:45;;;;;;;2.73;2.53;;;16.70;66.30;;;;;;4994107;28;20449;-81
2024/01/04 05:01:13;;;;;;;2.60;2.40;;;16.70;66.40;;;;;;4993481;28;20477;-81
2024/01/04 05:03:41;;;;;;;4.47;3.20;;;16.70;66.30;;;;;;4993944;28;20537;-81
2024/01/04 05:06:10;;;;;;;3.50;3.20;;;16.70;66.40;;;;;;4983277;28;20530;-81
2024/01/04 05:08:38;;;;;;;2.67;2.47;;;16.70;66.50;;;;;;4993679;28;20441;-81
2024/01/04 05:11:06;;;;;;;2.80;2.60;;;16.70;66.30;;;;;;4995032;28;20437;-81
2024/01/04 05:13:36;;;;;;;2.80;2.60;;;16.70;66.50;;;;;;4993453;28;20445;-81
2024/01/04 05:16:05;;;;;;;3.17;2.87;;;16.70;65.90;;;;;;4988053;28;20452;-81
2024/01/04 05:18:33;;;;;;;2.63;2.43;;;16.70;66.50;;;;;;4997009;28;20507;-81
2024/01/04 05:21:01;;;;;;;2.87;2.53;;;16.60;66.30;;;;;;4993308;28;20474;-81
2024/01/04 05:23:29;;;;;;;3.47;2.30;;;16.60;65.80;;;;;;4998008;28;20475;-81
2024/01/04 05:25:57;;;;;;;2.30;2.10;;;16.60;66.70;;;;;;4998349;28;20453;-82
2024/01/04 05:28:26;;;;;;;2.87;2.67;;;16.60;66.20;;;;;;4998600;28;20449;-81
2024/01/04 05:30:55;;;;;;;2.90;2.37;;;16.50;66.40;;;;;;4997433;28;20557;-82
2024/01/04 05:33:24;;;;;;;2.43;2.20;;;16.60;66.40;;;;;;4997839;28;20468;-82
2024/01/04 05:35:52;;;;;;;2.33;2.20;;;16.60;66.50;;;;;;4997640;28;20515;-82
2024/01/04 05:38:22;;;;;;;2.20;2.10;;;16.60;66.50;;;;;;4997742;28;20452;-82
2024/01/04 05:40:50;;;;;;;2.00;1.90;;;16.60;66.40;;;;;;4994584;28;20478;-81
2024/01/04 05:43:18;;;;;;;2.23;2.13;;;16.60;66.30;;;;;;4993204;28;20507;-84
2024/01/04 05:45:46;;;;;;;2.23;2.03;;;16.60;66.20;;;;;;4997290;28;20472;-81
2024/01/04 05:48:15;;;;;;;4.10;2.40;;;16.60;66.20;;;;;;4997320;28;20500;-81
2024/01/04 05:50:45;;;;;;;2.93;2.47;;;16.60;66.30;;;;;;4996714;28;20446;-81
2024/01/04 05:53:14;;;;;;;2.40;2.30;;;16.60;65.80;;;;;;4992258;28;20473;-81
2024/01/04 05:55:42;;;;;;;3.20;2.13;;;16.50;66.10;;;;;;4998212;28;20465;-81
2024/01/04 05:58:13;;;;;;;2.43;2.23;;;16.50;66.10;;;;;;4996983;28;20434;-81
2024/01/04 06:00:41;;;;;;;2.13;2.03;;;16.50;65.90;;;;;;4996741;28;20473;-81
2024/01/04 06:03:10;;;;;;;2.87;1.93;;;16.50;66.00;;;;;;4995624;28;20476;-81
2024/01/04 06:05:40;;;;;;;1.80;1.70;;;16.50;66.00;;;;;;4995481;28;20468;-80
2024/01/04 06:08:08;;;;;;;2.33;2.13;;;16.50;66.10;;;;;;4997276;28;20449;-81
2024/01/04 06:10:36;;;;;;;1.93;1.80;;;16.50;66.00;;;;;;4997100;28;20464;-81
2024/01/04 06:13:07;;;;;;;1.70;1.60;;;16.50;66.00;;;;;;4997642;28;20469;-80
2024/01/04 06:15:35;;;;;;;3.20;2.00;;;16.50;66.10;;;;;;4996841;28;20429;-80
2024/01/04 06:18:04;;;;;;;2.70;2.10;;;16.50;65.80;;;;;;4997206;28;20476;-80
2024/01/04 06:20:32;;;;;;;2.10;1.73;;;16.50;66.10;;;;;;4997039;28;20557;-82
2024/01/04 06:23:02;;;;;;;2.30;1.77;;;16.50;66.00;;;;;;4996828;28;20531;-82
2024/01/04 06:25:30;;;;;;;2.10;2.00;;;16.50;66.10;;;;;;4997008;28;20445;-80
2024/01/04 06:27:58;;;;;;;1.60;1.50;;;16.50;65.90;;;;;;4996220;28;20441;-80
2024/01/04 06:30:26;;;;;;;2.03;1.83;;;16.50;66.00;;;;;;4993457;28;20445;-80
2024/01/04 06:32:55;;;;;;;1.93;1.83;;;16.50;66.00;;;;;;4988672;28;20527;-80
2024/01/04 06:35:26;;;;;;;2.50;1.73;;;16.40;66.00;;;;;;4996920;28;20434;-79
2024/01/04 06:37:59;;;;;;;2.13;1.93;;;16.40;66.00;;;;;;4997769;28;20440;-83
2024/01/04 06:40:28;;;;;;;1.40;1.30;;;16.40;66.00;;;;;;4985833;28;20999;-83
2024/01/04 06:42:57;;;;;;;1.90;1.70;;;16.40;65.80;;;;;;4989372;28;20461;-82
2024/01/04 06:45:26;;;;;;;2.10;1.47;;;16.40;65.90;;;;;;4994830;28;20448;-82
2024/01/04 06:47:54;;;;;;;1.90;1.80;;;16.40;65.90;;;;;;4998189;28;21008;-82
2024/01/04 06:50:22;;;;;;;2.00;1.90;;;16.40;65.60;;;;;;4995957;28;20537;-82
2024/01/04 06:52:51;;;;;;;1.80;1.70;;;16.40;65.90;;;;;;4996715;28;20496;-82
2024/01/04 06:55:19;;;;;;;1.90;1.80;;;16.40;65.60;;;;;;4996669;28;20476;-82
2024/01/04 06:57:48;;;;;;;1.97;1.87;;;16.30;65.90;;;;;;4995514;28;20476;-82
2024/01/04 07:00:17;;;;;;;1.87;1.77;;;16.30;65.80;;;;;;4981261;28;20537;-82
2024/01/04 07:02:45;;;;;;;1.60;1.50;;;16.30;65.80;;;;;;4979181;28;20513;-81
2024/01/04 07:05:13;;;;;;;1.87;1.77;;;16.30;65.50;;;;;;4979506;28;20446;-80
2024/01/04 07:07:41;;;;;;;3.10;1.73;;;16.30;66.00;;;;;;4978041;28;20911;-80
2024/01/04 07:10:10;;;;;;;1.73;1.63;;;16.30;65.70;;;;;;4977041;28;20453;-80
2024/01/04 07:12:39;;;;;;;1.50;1.40;;;16.30;65.50;;;;;;5011964;23;20484;-81
2024/01/04 07:15:10;;;;;;;1.60;1.50;;;16.30;65.80;;;;;;5019861;28;20524;-81
2024/01/04 07:17:38;;;;;;;1.40;1.30;;;16.30;65.50;;;;;;5022445;28;20486;-81
2024/01/04 07:20:09;;;;;;;1.87;1.77;;;16.30;65.70;;;;;;5019401;28;20440;-81
2024/01/04 07:22:37;;;;;;;1.63;1.53;;;16.30;65.70;;;;;;5019490;28;20480;-81
2024/01/04 07:25:06;;;;;;;1.77;1.67;;;16.30;65.50;;;;;;5019461;28;20532;-81
2024/01/04 07:27:34;;;;;;;1.40;1.30;;;16.30;65.90;;;;;;5018258;28;20440;-81
2024/01/04 07:30:02;;;;;;;1.77;1.67;;;16.30;65.60;;;;;;5018325;28;20543;-79
2024/01/04 07:32:32;;;;;;;1.30;1.30;;;16.30;65.60;;;;;;5016653;28;20531;-80
2024/01/04 07:35:01;;;;;;;1.73;1.47;;;16.20;65.40;;;;;;5018720;28;20444;-80
2024/01/04 07:37:42;;;;;;;1.30;1.30;;;16.20;65.40;;;;;;5017999;28;20459;-80
2024/01/04 07:40:12;;;;;;;1.50;1.40;;;16.20;65.40;;;;;;5018914;28;20444;-80
2024/01/04 07:42:40;;;;;;;2.30;1.30;;;16.20;65.50;;;;;;5016338;28;20476;-78
2024/01/04 07:45:09;;;;;;;3.43;1.40;;;16.20;65.50;;;;;;5016173;28;20544;-78
2024/01/04 07:47:39;;;;;;;1.80;1.70;;;16.20;65.60;;;;;;5016634;28;20452;-78
2024/01/04 07:50:09;;;;;;;1.50;1.40;;;16.20;65.40;;;;;;5016394;28;20453;-79
2024/01/04 07:52:38;;;;;;;1.30;1.20;;;16.20;65.60;;;;;;5016149;28;20551;-79
2024/01/04 07:55:07;;;;;;;1.50;1.40;;;16.10;65.20;;;;;;5016600;28;20471;-79
2024/01/04 07:57:35;;;;;;;1.20;1.20;;;16.10;65.50;;;;;;5005061;28;20453;-79
2024/01/04 08:00:04;;;;;;;1.50;1.40;;;16.20;65.40;;;;;;4995914;28;20473;-79
2024/01/04 08:02:33;;;;;;;1.10;1.00;;;16.10;65.00;;;;;;5012851;28;20506;-80
2024/01/04 08:05:02;;;;;;;1.40;1.30;;;16.10;65.40;;;;;;5010663;28;20441;-80
2024/01/04 08:07:31;;;;;;;1.20;1.10;;;16.10;65.30;;;;;;5013192;28;20447;-80
2024/01/04 08:09:59;;;;;;;1.27;1.10;;;16.20;65.30;;;;;;5014539;28;20464;-80
2024/01/04 08:12:29;;;;;;;1.37;1.23;;;16.10;65.40;;;;;;5011759;28;20465;-80
2024/01/04 08:14:57;;;;;;;1.20;1.10;;;16.10;65.40;;;;;;5013104;28;20527;-80
2024/01/04 08:17:25;;;;;;;1.40;1.30;;;16.20;65.10;;;;;;5015863;28;20444;-80
2024/01/04 08:19:53;;;;;;;1.93;1.03;;;16.20;65.40;;;;;;5009300;28;20443;-80
2024/01/04 08:22:22;;;;;;;1.40;1.30;;;16.10;65.30;;;;;;5027625;28;20548;-81
2024/01/04 08:24:50;;;;;;;2.60;1.20;;;16.20;65.30;;;;;;5014397;28;20443;-80
2024/01/04 08:27:19;;;;;;;1.10;1.10;;;16.20;65.40;;;;;;5007122;28;20457;-80
2024/01/04 08:29:48;;;;;;;1.27;1.17;;;16.20;65.30;;;;;;5010093;28;20523;-80
2024/01/04 08:32:16;;;;;;;1.47;1.30;;;16.20;65.10;;;;;;5012712;28;20460;-79
2024/01/04 08:34:45;;;;;;;1.93;1.20;;;16.20;64.80;;;;;;5007083;28;20469;-81
2024/01/04 08:37:14;;;;;;;1.37;1.27;;;16.20;65.00;;;;;;5009251;28;20437;-85
2024/01/04 08:39:44;;;;;;;1.20;1.20;;;16.20;65.20;;;;;;5004887;28;20465;-81
2024/01/04 08:42:12;;;;;;;2.10;1.00;;;16.20;64.90;;;;;;5004143;28;20476;-81
2024/01/04 08:44:43;;;;;;;1.83;1.10;;;16.20;65.10;;;;;;5015307;28;20448;-81
2024/01/04 08:47:11;;;;;;;1.20;1.10;;;16.20;64.90;;;;;;5006894;28;20448;-81
2024/01/04 08:49:39;;;;;;;1.00;0.90;;;16.20;65.20;;;;;;4997503;28;20453;-81
2024/01/04 08:52:07;;;;;;;1.23;0.93;;;16.30;65.10;;;;;;4997588;28;20473;-80
2024/01/04 08:54:39;;;;;;;1.17;1.07;;;16.30;64.80;;;;;;5004649;28;20486;-82
2024/01/04 08:57:17;;;;;;;1.37;1.27;;;16.30;65.10;;;;;;5012457;28;20445;-80
2024/01/04 08:59:48;;;;;;;1.30;1.20;;;16.30;64.70;;;;;;5005895;28;20452;-80
2024/01/04 09:02:20;;;;;;;1.27;1.20;;;16.40;64.60;;;;;;5021236;28;20542;-81
2024/01/04 09:04:50;;;;;;;1.27;1.17;;;16.40;64.50;;;;;;5021308;28;20452;-80
2024/01/04 09:07:19;;;;;;;1.10;1.10;;;16.50;64.40;;;;;;5010110;28;20449;-80
2024/01/04 09:09:47;;;;;;;1.00;1.00;;;16.50;64.00;;;;;;5009262;28;20511;-80
2024/01/04 09:12:22;;;;;;;1.20;1.10;;;16.50;64.00;;;;;;5008094;28;20476;-81
2024/01/04 09:14:55;;;;;;;1.87;1.07;;;16.60;63.80;;;;;;5010201;28;20447;-79
2024/01/04 09:17:25;;;;;;;1.40;1.30;;;16.60;63.80;;;;;;5006332;28;20448;-77
2024/01/04 09:19:57;;;;;;;1.77;1.20;;;16.70;63.90;;;;;;5003989;28;20448;-78
2024/01/04 09:22:27;;;;;;;1.20;1.10;;;16.70;63.70;;;;;;5005043;28;20475;-77
2024/01/04 09:24:57;;;;;;;1.53;0.97;;;16.70;63.50;;;;;;5003385;28;20471;-77
2024/01/04 09:27:28;;;;;;;3.30;1.70;;;16.70;63.50;;;;;;5003147;28;20469;-77
2024/01/04 09:29:56;;;;;;;1.10;1.00;;;16.70;63.40;;;;;;5008088;28;20461;-78
2024/01/04 09:32:31;;;;;;;1.60;1.50;;;16.80;63.40;;;;;;5045526;22;20517;-78
2024/01/04 09:35:25;;;;;;;1.47;1.37;;;16.70;63.10;;;;;;4996590;28;20531;-79
2024/01/04 09:38:18;;;;;;;1.10;1.00;;;16.80;62.90;;;;;;4993189;28;20472;-79
2024/01/04 09:40:49;;;;;;;2.30;1.27;;;16.80;63.50;;;;;;4999733;28;20449;-81
2024/01/04 09:43:19;;;;;;;2.63;1.90;;;15.90;55.10;;;;;;5001397;28;20535;-81
2024/01/04 09:45:47;;;;;;;3.43;2.63;;;14.80;52.10;;;;;;5002030;28;20448;-79
2024/01/04 09:48:15;;;;;;;2.00;1.60;;;14.20;52.00;;;;;;5006191;28;20449;-79
2024/01/04 09:50:55;;;;;;;2.53;1.40;;;13.60;53.50;;;;;;5004847;28;20462;-80
2024/01/04 09:53:47;;;;;;;3.57;2.40;;;13.40;53.40;;;;;;5012720;28;20472;-80
2024/01/04 09:56:17;;;;;;;4.30;2.13;;;13.10;53.90;;;;;;5003831;28;20453;-79
2024/01/04 09:58:49;;;;;;;9.43;4.67;;;12.20;54.70;;;;;;4996909;28;20437;-78
2024/01/04 10:01:25;;;;;;;2.90;2.23;;;12.00;58.30;;;;;;4990305;28;20446;-79
2024/01/04 10:04:17;;;;;;;2.60;2.40;;;13.10;60.40;;;;;;4995877;28;20541;-80
2024/01/04 10:06:46;;;;;;;5.10;2.40;;;14.00;59.30;;;;;;4990983;28;20446;-79
2024/01/04 10:09:16;;;;;;;2.10;1.80;;;14.60;58.20;;;;;;4995413;28;20453;-79
2024/01/04 10:11:56;;;;;;;1.73;1.63;;;15.10;57.70;;;;;;4995412;28;20469;-78
2024/01/04 10:14:25;;;;;;;5.00;2.30;;;15.40;57.20;;;;;;4984016;28;20445;-77
2024/01/04 10:16:55;;;;;;;3.67;2.20;;;15.70;57.10;;;;;;4996446;28;20512;-78
2024/01/04 10:19:24;;;;;;;2.30;1.90;;;15.90;57.70;;;;;;4995480;28;20438;-79
2024/01/04 10:21:52;;;;;;;3.93;1.83;;;16.10;57.20;;;;;;4997209;28;20445;-78
2024/01/04 10:24:23;;;;;;;3.60;1.90;;;16.20;57.30;;;;;;4993424;28;20482;-79
2024/01/04 10:26:56;;;;;;;1.77;1.67;;;16.30;57.30;;;;;;4996547;28;20512;-78
2024/01/04 10:29:57;;;;;;;1.40;1.30;;;16.40;57.60;;;;;;4996113;28;20438;-78
2024/01/04 10:32:59;;;;;;;2.40;2.00;;;16.50;57.60;;;;;;4991408;28;20544;-78
2024/01/04 10:35:29;;;;;;;2.03;1.77;;;16.60;57.80;;;;;;4998268;28;20456;-78
2024/01/04 10:37:59;;;;;;;1.80;1.40;;;16.60;58.10;;;;;;4999325;28;20429;-78
2024/01/04 10:40:26;;;;;;;2.40;1.50;;;16.60;58.00;;;;;;4999817;28;20464;-79
2024/01/04 10:42:59;;;;;;;1.60;1.50;;;16.60;58.40;;;;;;4998171;28;20574;-80
2024/01/04 10:45:29;;;;;;;6.17;1.90;;;16.70;58.70;;;;;;5000745;28;20453;-80
2024/01/04 10:47:58;;;;;;;1.73;1.53;;;16.70;58.50;;;;;;4997412;28;20995;-79
2024/01/04 10:50:27;;;;;;;1.80;1.63;;;16.70;58.70;;;;;;4995074;28;20464;-80
2024/01/04 10:52:55;;;;;;;1.63;1.50;;;16.70;58.80;;;;;;5001287;28;20464;-81
2024/01/04 10:55:24;;;;;;;1.40;1.30;;;16.80;59.30;;;;;;5000366;28;20471;-80
2024/01/04 10:57:52;;;;;;;2.20;1.60;;;16.80;59.30;;;;;;4992691;28;20489;-80
2024/01/04 11:00:46;;;;;;;2.67;1.70;;;16.80;59.40;;;;;;4985006;28;20539;-78
2024/01/04 11:03:14;;;;;;;2.23;1.70;;;16.90;59.50;;;;;;4994101;28;20527;-78
2024/01/04 11:05:42;;;;;;;3.20;1.60;;;16.90;59.60;;;;;;5003464;28;20453;-79
2024/01/04 11:08:10;;;;;;;1.40;1.30;;;17.00;59.70;;;;;;4991223;28;21004;-78
2024/01/04 11:10:38;;;;;;;3.53;1.37;;;17.00;59.70;;;;;;4995610;28;20449;-79
2024/01/04 11:13:06;;;;;;;2.67;1.47;;;16.90;59.80;;;;;;4994471;28;20497;-78
2024/01/04 11:15:34;;;;;;;1.67;1.57;;;17.00;59.90;;;;;;4987777;28;20468;-79
2024/01/04 11:18:14;;;;;;;1.53;1.43;;;17.00;60.10;;;;;;4993725;28;20449;-79
2024/01/04 11:20:53;;;;;;;2.10;1.50;;;17.10;60.20;;;;;;4990071;28;20453;-78
2024/01/04 11:23:42;;;;;;;1.33;1.20;;;17.10;60.10;;;;;;4990629;28;20548;-79
2024/01/04 11:26:23;;;;;;;1.40;1.30;;;17.10;60.50;;;;;;4996137;28;20449;-79
2024/01/04 11:28:54;;;;;;;2.10;1.30;;;17.10;60.50;;;;;;4996248;28;20441;-78
2024/01/04 11:31:24;;;;;;;4.53;1.70;;;17.10;60.40;;;;;;4989255;28;20525;-78
2024/01/04 11:34:12;;;;;;;1.47;1.40;;;17.10;60.40;;;;;;4993455;28;20465;-80
2024/01/04 11:36:44;;;;;;;2.00;1.10;;;17.10;60.60;;;;;;4994462;28;20450;-81
2024/01/04 11:39:12;;;;;;;1.57;1.47;;;17.10;60.70;;;;;;4994159;28;20453;-79
2024/01/04 11:41:40;;;;;;;2.67;1.40;;;17.00;60.90;;;;;;4991090;28;20449;-79
2024/01/04 11:44:16;;;;;;;1.93;1.37;;;17.00;61.00;;;;;;4991028;28;20474;-79
2024/01/04 11:46:52;;;;;;;1.70;1.60;;;17.00;60.90;;;;;;4990932;28;20484;-80
2024/01/04 11:49:24;;;;;;;4.37;1.30;;;17.00;61.20;;;;;;4994443;28;20449;-82
2024/01/04 11:51:52;;;;;;;2.90;1.50;;;17.00;61.40;;;;;;4993274;28;20445;-82
2024/01/04 11:54:22;;;;;;;1.00;1.00;;;17.00;61.40;;;;;;4999149;28;20446;-81
2024/01/04 11:57:29;;;;;;;1.73;1.30;;;17.00;61.40;;;;;;4990819;28;20445;-81
2024/01/04 12:00:39;;;;;;;1.73;1.40;;;16.90;61.40;;;;;;4988174;28;20441;-82
2024/01/04 12:03:31;;;;;;;1.40;1.30;;;17.00;61.80;;;;;;4978201;28;20455;-79
2024/01/04 12:06:02;;;;;;;2.10;1.30;;;17.00;61.70;;;;;;4992071;28;20507;-78
2024/01/04 12:08:32;;;;;;;1.87;1.43;;;16.90;61.50;;;;;;4988552;28;20512;-80
2024/01/04 12:11:03;;;;;;;2.93;1.97;;;16.90;61.70;;;;;;4994693;28;20550;-79
2024/01/04 12:17:14;;;;;;;1.53;1.43;;;16.90;62.00;;;;;;4995893;28;20621;-81
2024/01/04 12:27:14;;;;;;;1.80;1.50;;;16.90;62.40;;;;;;4982703;28;20464;-80
2024/01/04 12:29:56;;;;;;;1.40;1.13;;;16.90;62.40;;;;;;4986209;28;20485;-81
2024/01/04 12:33:18;;;;;;;1.40;1.30;;;17.00;62.70;;;;;;4992701;28;20485;-78
2024/01/04 12:35:58;;;;;;;1.10;1.10;;;17.10;62.60;;;;;;4981361;28;20993;-79
2024/01/04 12:38:31;;;;;;;0.90;0.90;;;17.20;62.40;;;;;;4994254;28;20452;-78
2024/01/04 12:41:02;;;;;;;2.13;1.50;;;17.20;62.20;;;;;;4987587;28;20456;-78
2024/01/04 12:46:46;;;;;;;1.40;1.30;;;17.30;62.10;;;;;;4986694;28;20516;-78
2024/01/04 12:50:22;;;;;;;1.53;1.30;;;17.30;62.10;;;;;;4993335;28;20456;-79
2024/01/04 12:53:23;;;;;;;1.40;1.30;;;17.30;62.20;;;;;;4963557;28;20472;-78
2024/01/04 12:56:10;;;;;;;1.30;1.20;;;17.30;62.10;;;;;;4991290;28;20445;-78
2024/01/04 12:59:15;;;;;;;1.67;1.20;;;17.40;62.50;;;;;;4985069;28;20447;-78
2024/01/04 13:06:14;;;;;;;1.40;1.30;;;17.70;62.70;;;;;;4896545;29;20552;-78
2024/01/04 13:15:44;;;;;;;2.47;1.40;;;17.90;62.10;;;;;;5008615;28;20484;-79
2024/01/04 13:18:13;;;;;;;1.23;1.13;;;18.00;62.50;;;;;;5008915;28;20432;-80
2024/01/04 13:20:41;;;;;;;1.57;1.37;;;18.10;62.10;;;;;;5013187;28;20803;-80
2024/01/04 13:23:11;;;;;;;1.43;1.10;;;18.10;62.00;;;;;;5014831;28;20444;-79
2024/01/04 13:25:39;;;;;;;2.93;1.70;;;18.20;62.00;;;;;;4990447;28;20497;-80
2024/01/04 13:28:07;;;;;;;1.60;1.50;;;18.10;62.00;;;;;;4991603;28;20437;-80
2024/01/04 13:30:35;;;;;;;1.60;1.47;;;18.10;62.10;;;;;;5007980;28;20429;-78
2024/01/04 13:33:05;;;;;;;1.60;1.50;;;18.10;61.90;;;;;;5005623;28;20433;-79